Terminal Aerodrome Forecast
Issued by NWS

Home | Current Version | Previous Version | Text Only | Print | Product List | Glossary On
Versions: 1 2 3 4 5 6 7 8 9 10 11 12 13 14 15 16 17 18 19 20 21 22 23 24 25 26 27
000
FTUS45 KBOI 221127
TAFBKE
TAF
KBKE 221127Z 2212/2312 VRB03KT P6SM FEW050 BKN100
     FM222100 15007KT P6SM VCTS SCT050CB BKN100
     FM230300 30010KT P6SM -RA VCTS BKN050CB OVC080
     FM230600 25007KT P6SM -SHRA OVC050=

USA.gov is the U.S. government's official web portal to all federal, state and local government web resources and services.